createdAt,value
2024-03-05T00:00:51.086Z,98205.84
2024-03-05T00:01:52.645Z,98201.22
2024-03-05T00:02:54.184Z,98201.59
2024-03-05T00:03:55.992Z,98198.16
2024-03-05T00:04:57.653Z,98192.88
2024-03-05T00:05:59.681Z,98188.88
2024-03-05T00:07:01.266Z,98194.53
2024-03-05T00:08:04.116Z,98188.88
2024-03-05T00:09:06.490Z,98180.41
2024-03-05T00:10:11.296Z,98186.84
2024-03-05T00:11:13.045Z,98171.75
2024-03-05T00:12:14.785Z,98179.59
2024-03-05T00:13:16.459Z,98183.66
2024-03-05T00:14:18.146Z,98179.81
2024-03-05T00:15:19.821Z,98175.78
2024-03-05T00:16:21.508Z,98182.03
2024-03-05T00:17:24.912Z,98177.19
2024-03-05T00:18:26.463Z,98160.22
2024-03-05T00:19:28.110Z,98171.53
2024-03-05T00:20:29.784Z,98173.97
2024-03-05T00:21:32.985Z,98167.88
2024-03-05T00:22:34.581Z,98169.50
2024-03-05T00:23:36.124Z,98165.25
2024-03-05T00:24:37.674Z,98165.06
2024-03-05T00:25:40.105Z,98163.00
2024-03-05T00:26:41.709Z,98168.69
2024-03-05T00:27:43.997Z,98167.50
2024-03-05T00:28:46.315Z,98167.09
2024-03-05T00:29:49.078Z,98158.63
2024-03-05T00:30:50.645Z,98167.13
2024-03-05T00:31:52.208Z,98163.13
2024-03-05T00:32:53.834Z,98164.31
2024-03-05T00:33:56.793Z,98162.06
2024-03-05T00:34:58.442Z,98160.25
2024-03-05T00:35:59.972Z,98155.44
2024-03-05T00:37:01.522Z,98165.13
2024-03-05T00:38:06.508Z,98152.59
2024-03-05T00:39:11.042Z,98160.69
2024-03-05T00:40:12.860Z,98157.84
2024-03-05T00:41:14.631Z,98154.41
2024-03-05T00:42:16.847Z,98156.63
2024-03-05T00:43:18.443Z,98151.00
2024-03-05T00:44:20.004Z,98146.94
2024-03-05T00:45:22.993Z,98143.72
2024-03-05T00:46:26.185Z,98149.38
2024-03-05T00:47:29.518Z,98149.56
2024-03-05T00:48:31.073Z,98145.53
2024-03-05T00:49:33.597Z,98151.22
2024-03-05T00:50:35.936Z,98152.63
2024-03-05T00:51:37.703Z,98145.59
2024-03-05T00:52:39.292Z,98144.16
2024-03-05T00:53:40.859Z,98149.41
2024-03-05T00:54:42.403Z,98132.47
2024-03-05T00:55:44.009Z,98144.41
2024-03-05T00:56:46.660Z,98141.59
2024-03-05T00:57:48.199Z,98142.59
2024-03-05T00:58:51.476Z,98148.25
2024-03-05T00:59:54.732Z,98138.56
2024-03-05T01:00:56.392Z,98156.91
2024-03-05T01:01:58.728Z,98148.84
2024-03-05T01:03:00.358Z,98141.00
2024-03-05T01:04:01.868Z,98145.44
2024-03-05T01:05:06.568Z,98143.81
2024-03-05T01:06:08.538Z,98146.81
2024-03-05T01:07:11.323Z,98143.19
2024-03-05T01:08:13.741Z,98139.16
2024-03-05T01:09:19.322Z,98139.75
2024-03-05T01:10:21.096Z,98131.69
2024-03-05T01:11:22.800Z,98143.19
2024-03-05T01:12:24.332Z,98137.94
2024-03-05T01:13:28.149Z,98128.84
2024-03-05T01:14:29.753Z,98141.38
2024-03-05T01:15:31.696Z,98135.31
2024-03-05T01:16:33.281Z,98132.28
2024-03-05T01:17:34.921Z,98140.16
2024-03-05T01:18:38.092Z,98135.50
2024-03-05T01:19:39.729Z,98126.00
2024-03-05T01:20:42.927Z,98128.03
2024-03-05T01:21:44.551Z,98136.91
2024-03-05T01:22:48.221Z,98122.97
2024-03-05T01:23:49.986Z,98126.41
2024-03-05T01:24:51.967Z,98129.22
2024-03-05T01:25:53.967Z,98118.75
2024-03-05T01:26:55.574Z,98122.56
2024-03-05T01:27:59.140Z,98118.13
2024-03-05T01:29:00.798Z,98120.75
2024-03-05T01:30:02.437Z,98094.13
2024-03-05T01:31:04.206Z,98109.88
2024-03-05T01:32:06.190Z,98115.94
2024-03-05T01:33:10.828Z,98109.66
2024-03-05T01:34:12.666Z,98106.88
2024-03-05T01:35:14.413Z,98113.13
2024-03-05T01:36:17.121Z,98114.34
2024-03-05T01:37:18.760Z,98110.91
2024-03-05T01:38:21.634Z,98112.09
2024-03-05T01:39:23.768Z,98107.25
2024-03-05T01:40:25.969Z,98110.31
2024-03-05T01:41:30.893Z,98106.44
2024-03-05T01:42:33.865Z,98098.59
2024-03-05T01:43:35.444Z,98105.03
2024-03-05T01:44:37.060Z,98109.91
2024-03-05T01:45:38.622Z,98108.69
2024-03-05T01:46:41.310Z,98099.38
2024-03-05T01:47:43.656Z,98104.25
2024-03-05T01:48:45.928Z,98099.78
2024-03-05T01:49:47.603Z,98096.97
2024-03-05T01:50:49.274Z,98108.69
2024-03-05T01:51:52.281Z,98101.41
2024-03-05T01:52:54.263Z,98101.41
2024-03-05T01:53:55.898Z,98102.19
2024-03-05T01:55:11.250Z,98103.44
2024-03-05T01:56:18.352Z,98105.44
2024-03-05T01:57:22.747Z,98103.25
2024-03-05T01:58:24.971Z,98103.00
2024-03-05T01:59:26.973Z,98099.56
2024-03-05T02:00:28.862Z,98100.00
2024-03-05T02:01:32.233Z,98100.19
2024-03-05T02:02:34.011Z,98109.50
2024-03-05T02:03:36.874Z,98115.72
2024-03-05T02:04:39.693Z,98111.09
2024-03-05T02:05:44.191Z,98116.53
2024-03-05T02:06:46.106Z,98116.34
2024-03-05T02:07:48.624Z,98101.19
2024-03-05T02:08:50.446Z,98100.81
2024-03-05T02:09:55.224Z,98099.59
2024-03-05T02:10:57.099Z,98111.31
2024-03-05T02:11:59.915Z,98095.34
2024-03-05T02:13:05.090Z,98119.19
2024-03-05T02:14:06.658Z,98111.69
2024-03-05T02:15:12.489Z,98110.69
2024-03-05T02:16:14.944Z,98116.97
2024-03-05T02:17:17.837Z,98106.47
2024-03-05T02:18:19.547Z,98108.28
2024-03-05T02:19:21.113Z,98108.06
2024-03-05T02:20:22.763Z,98102.03
2024-03-05T02:21:24.316Z,98107.69
2024-03-05T02:22:25.952Z,98106.47
2024-03-05T02:23:27.483Z,98103.84
2024-03-05T02:24:29.594Z,98099.78
2024-03-05T02:25:34.066Z,98105.03
2024-03-05T02:26:35.739Z,98103.03
2024-03-05T02:27:38.553Z,98111.09
2024-03-05T02:28:40.875Z,98107.06
2024-03-05T02:29:43.017Z,98101.00
2024-03-05T02:30:45.131Z,98094.75
2024-03-05T02:31:46.777Z,98103.03
2024-03-05T02:32:48.499Z,98099.41
2024-03-05T02:33:50.227Z,98097.38
2024-03-05T02:34:55.486Z,98104.63
2024-03-05T02:36:00.720Z,98103.22
2024-03-05T02:37:02.362Z,98107.25
2024-03-05T02:38:07.256Z,98105.63
2024-03-05T02:39:08.984Z,98104.03
2024-03-05T02:40:11.805Z,98105.25
2024-03-05T02:41:13.436Z,98102.63
2024-03-05T02:42:15.170Z,98104.03
2024-03-05T02:43:18.917Z,98100.38
2024-03-05T02:44:20.467Z,98089.50
2024-03-05T02:45:22.073Z,98097.59
2024-03-05T02:46:25.905Z,98097.19
2024-03-05T02:47:27.561Z,98096.38
2024-03-05T02:48:29.163Z,98097.38
2024-03-05T02:49:30.783Z,98084.84
2024-03-05T02:50:32.372Z,98090.91
2024-03-05T02:51:33.945Z,98088.50
2024-03-05T02:52:40.224Z,98088.88
2024-03-05T02:53:42.127Z,98095.53
2024-03-05T02:54:43.791Z,98089.50
2024-03-05T02:55:45.623Z,98080.03
2024-03-05T02:56:47.236Z,98096.94
2024-03-05T02:57:48.843Z,98097.38
2024-03-05T02:58:50.455Z,98092.13
2024-03-05T02:59:55.315Z,98085.28
2024-03-05T03:00:57.079Z,98086.88
2024-03-05T03:01:58.704Z,98091.72
2024-03-05T03:03:00.835Z,98084.25
2024-03-05T03:04:02.344Z,98081.03
2024-03-05T03:05:04.148Z,98084.66
2024-03-05T03:06:05.874Z,98084.84
2024-03-05T03:07:08.619Z,98088.50
2024-03-05T03:08:10.188Z,98090.91
2024-03-05T03:09:11.839Z,98082.03
2024-03-05T03:10:13.880Z,98092.13
2024-03-05T03:11:16.959Z,98086.09
2024-03-05T03:12:18.549Z,98088.09
2024-03-05T03:13:20.182Z,98074.78
2024-03-05T03:14:22.487Z,98078.00
2024-03-05T03:15:26.730Z,98085.66
2024-03-05T03:16:28.711Z,98089.91
2024-03-05T03:17:33.475Z,98083.88
2024-03-05T03:18:37.214Z,98085.44
2024-03-05T03:19:38.831Z,98080.03
2024-03-05T03:20:41.083Z,98088.69
2024-03-05T03:21:43.105Z,98079.81
2024-03-05T03:22:46.647Z,98081.81
2024-03-05T03:23:48.191Z,98076.38
2024-03-05T03:24:49.816Z,98076.78
2024-03-05T03:25:51.571Z,98070.94
2024-03-05T03:26:53.600Z,98080.41
2024-03-05T03:27:55.215Z,98076.19
2024-03-05T03:28:57.079Z,98071.53
2024-03-05T03:29:59.256Z,98076.38
2024-03-05T03:31:01.616Z,98076.97
2024-03-05T03:32:05.495Z,98079.81
2024-03-05T03:33:07.135Z,98073.97
2024-03-05T03:34:08.755Z,98080.03
2024-03-05T03:35:11.181Z,98077.78
2024-03-05T03:36:22.556Z,98086.06
2024-03-05T03:37:24.080Z,98084.84
2024-03-05T03:38:25.564Z,98081.22
2024-03-05T03:39:27.053Z,98092.72
2024-03-05T03:40:34.459Z,98087.66
2024-03-05T03:41:36.062Z,98095.13
2024-03-05T03:42:37.504Z,98087.66
2024-03-05T03:43:39.154Z,98084.41
2024-03-05T03:44:40.889Z,98090.06
2024-03-05T03:45:42.672Z,98094.50
2024-03-05T03:46:44.795Z,98086.66
2024-03-05T03:47:47.425Z,98084.03
2024-03-05T03:48:49.991Z,98096.13
2024-03-05T03:49:52.193Z,98095.31
2024-03-05T03:50:54.133Z,98094.50
2024-03-05T03:51:55.721Z,98095.69
2024-03-05T03:52:57.241Z,98091.03
2024-03-05T03:53:58.840Z,98104.53
2024-03-05T03:55:00.425Z,98102.13
2024-03-05T03:56:01.870Z,98099.06
2024-03-05T03:57:03.460Z,98101.69
2024-03-05T03:58:05.098Z,98087.78
2024-03-05T03:59:06.563Z,98089.22
2024-03-05T04:00:10.997Z,98090.84
2024-03-05T04:01:12.489Z,98090.84
2024-03-05T04:02:13.925Z,98078.72
2024-03-05T04:03:16.324Z,98082.16
2024-03-05T04:04:17.836Z,98086.34
2024-03-05T04:05:19.320Z,98082.75
2024-03-05T04:06:20.754Z,98089.19
2024-03-05T04:07:25.047Z,98087.16
2024-03-05T04:08:26.987Z,98082.13
2024-03-05T04:09:28.862Z,98083.53
2024-03-05T04:10:30.301Z,98087.97
2024-03-05T04:11:32.894Z,98093.22
2024-03-05T04:12:34.767Z,98091.19
2024-03-05T04:13:36.317Z,98089.97
2024-03-05T04:14:37.860Z,98083.75
2024-03-05T04:15:39.269Z,98084.34
2024-03-05T04:16:41.726Z,98085.34
2024-03-05T04:17:45.762Z,98086.34
2024-03-05T04:18:47.391Z,98085.53
2024-03-05T04:19:49.867Z,98083.53
2024-03-05T04:20:51.369Z,98086.34
2024-03-05T04:21:52.957Z,98085.16
2024-03-05T04:22:54.500Z,98084.75
2024-03-05T04:23:55.994Z,98088.78
2024-03-05T04:24:58.229Z,98082.16
2024-03-05T04:26:03.142Z,98079.53
2024-03-05T04:27:05.625Z,98080.34
2024-03-05T04:28:12.292Z,98075.91
2024-03-05T04:29:21.008Z,98081.34
2024-03-05T04:30:24.502Z,98078.91
2024-03-05T04:31:37.553Z,98090.41
2024-03-05T04:32:56.257Z,98079.72
2024-03-05T04:34:04.017Z,98088.97
2024-03-05T04:35:07.921Z,98088.78
2024-03-05T04:36:10.470Z,98086.34
2024-03-05T04:37:12.115Z,98074.06
2024-03-05T04:38:13.676Z,98080.09
2024-03-05T04:39:16.883Z,98081.31
2024-03-05T04:40:18.574Z,98084.94
2024-03-05T04:41:20.071Z,98085.16
2024-03-05T04:42:23.587Z,98097.22
2024-03-05T04:43:25.005Z,98088.16
2024-03-05T04:44:29.937Z,98092.03
2024-03-05T04:45:31.371Z,98088.41
2024-03-05T04:46:32.869Z,98084.78
2024-03-05T04:47:34.789Z,98083.78
2024-03-05T04:48:36.377Z,98077.91
2024-03-05T04:49:37.999Z,98078.72
2024-03-05T04:50:39.468Z,98084.16
2024-03-05T04:51:43.542Z,98081.34
2024-03-05T04:52:45.340Z,98085.97
2024-03-05T04:53:46.772Z,98091.63
2024-03-05T04:54:48.253Z,98091.03
2024-03-05T04:55:49.790Z,98092.41
2024-03-05T04:56:51.251Z,98084.94
2024-03-05T04:57:52.816Z,98096.22
2024-03-05T04:58:54.585Z,98098.44
2024-03-05T04:59:56.071Z,98096.22
2024-03-05T05:00:57.714Z,98096.75
2024-03-05T05:01:59.512Z,98091.72
2024-03-05T05:03:01.035Z,98086.28
2024-03-05T05:04:03.634Z,98085.13
2024-03-05T05:05:05.164Z,98085.47
2024-03-05T05:06:07.085Z,98095.41
2024-03-05T05:07:08.794Z,98091.97
2024-03-05T05:08:11.248Z,98097.75
2024-03-05T05:09:14.145Z,98089.50
2024-03-05T05:10:15.931Z,98099.38
2024-03-05T05:11:17.762Z,98095.59
2024-03-05T05:12:19.258Z,98095.59
2024-03-05T05:13:21.649Z,98089.34
2024-03-05T05:14:23.134Z,98090.59
2024-03-05T05:15:25.062Z,98092.41
2024-03-05T05:16:27.891Z,98093.59
2024-03-05T05:17:30.151Z,98098.84
2024-03-05T05:18:31.652Z,98097.22
2024-03-05T05:19:33.123Z,98092.97
2024-03-05T05:20:34.620Z,98096.56
2024-03-05T05:21:36.902Z,98099.66
2024-03-05T05:22:43.364Z,98093.59
2024-03-05T05:23:45.122Z,98100.84
2024-03-05T05:24:46.587Z,98098.22
2024-03-05T05:25:48.621Z,98098.38
2024-03-05T05:26:50.110Z,98094.34
2024-03-05T05:27:51.966Z,98104.44
2024-03-05T05:28:53.666Z,98101.81
2024-03-05T05:29:58.706Z,98102.28
2024-03-05T05:31:04.901Z,98102.88
2024-03-05T05:32:08.612Z,98104.88
2024-03-05T05:33:10.228Z,98107.25
2024-03-05T05:34:11.809Z,98109.88
2024-03-05T05:35:13.220Z,98114.91
2024-03-05T05:36:15.317Z,98113.91
2024-03-05T05:37:16.962Z,98107.84
2024-03-05T05:38:18.521Z,98110.06
2024-03-05T05:39:25.411Z,98100.38
2024-03-05T05:40:26.911Z,98104.81
2024-03-05T05:41:28.400Z,98100.00
2024-03-05T05:42:29.860Z,98098.66
2024-03-05T05:43:31.404Z,98105.69
2024-03-05T05:44:32.869Z,98102.47
2024-03-05T05:45:35.535Z,98097.03
2024-03-05T05:46:37.107Z,98102.28
2024-03-05T05:47:52.817Z,98105.06
2024-03-05T05:48:55.746Z,98104.69
2024-03-05T05:49:57.251Z,98106.50
2024-03-05T05:51:02.107Z,98100.25
2024-03-05T05:52:06.953Z,98101.66
2024-03-05T05:53:09.926Z,98097.03
2024-03-05T05:54:11.966Z,98101.28
2024-03-05T05:55:16.700Z,98099.88
2024-03-05T05:56:18.425Z,98099.69
2024-03-05T05:57:19.912Z,98093.63
2024-03-05T05:58:21.382Z,98097.50
2024-03-05T05:59:22.873Z,98100.50
2024-03-05T06:00:38.793Z,98100.06
2024-03-05T06:01:40.992Z,98095.25
2024-03-05T06:02:42.523Z,98096.88
2024-03-05T06:03:47.142Z,98097.50
2024-03-05T06:04:49.609Z,98093.66
2024-03-05T06:05:51.066Z,98096.06
2024-03-05T06:06:52.783Z,98097.88
2024-03-05T06:07:55.046Z,98087.22
2024-03-05T06:08:56.742Z,98090.84
2024-03-05T06:09:58.167Z,98087.22
2024-03-05T06:10:59.774Z,98089.00
2024-03-05T06:12:02.646Z,98034.06
2024-03-05T06:13:04.222Z,98082.78
2024-03-05T06:14:08.062Z,98086.00
2024-03-05T06:15:09.726Z,98084.19
2024-03-05T06:16:11.367Z,98084.38
2024-03-05T06:17:12.898Z,98089.81
2024-03-05T06:18:14.352Z,98093.44
2024-03-05T06:19:16.218Z,98089.00
2024-03-05T06:20:17.727Z,98091.06
2024-03-05T06:21:19.230Z,98085.63
2024-03-05T06:22:27.095Z,98090.88
2024-03-05T06:23:31.867Z,98094.09
2024-03-05T06:24:33.318Z,98092.06
2024-03-05T06:25:34.886Z,98090.88
2024-03-05T06:26:37.754Z,98092.66
2024-03-05T06:27:39.664Z,98093.06
2024-03-05T06:28:41.267Z,98088.81
2024-03-05T06:29:43.417Z,98093.69
2024-03-05T06:30:47.339Z,98089.63
2024-03-05T06:31:49.022Z,98092.44
2024-03-05T06:32:52.850Z,98090.88
2024-03-05T06:33:55.692Z,98094.69
2024-03-05T06:34:57.341Z,98098.53
2024-03-05T06:35:59.429Z,98094.88
2024-03-05T06:37:02.607Z,98097.91
2024-03-05T06:38:07.680Z,98089.63
2024-03-05T06:39:19.425Z,98096.91
2024-03-05T06:40:21.532Z,98090.06
2024-03-05T06:41:26.317Z,98096.91
2024-03-05T06:42:31.533Z,98093.69
2024-03-05T06:43:34.608Z,98099.53
2024-03-05T06:44:37.725Z,98100.34
2024-03-05T06:45:39.295Z,98093.91
2024-03-05T06:46:43.511Z,98096.13
2024-03-05T06:48:07.198Z,98091.69
2024-03-05T06:49:16.354Z,98093.31
2024-03-05T06:50:21.040Z,98092.91
2024-03-05T06:51:33.072Z,98087.03
2024-03-05T06:52:53.211Z,98094.91
2024-03-05T06:54:13.520Z,98095.50
2024-03-05T06:55:33.534Z,98094.31
2024-03-05T06:56:41.389Z,98097.53
2024-03-05T06:57:43.365Z,98095.72
2024-03-05T06:58:46.561Z,98096.13
2024-03-05T06:59:50.917Z,98100.56
2024-03-05T07:00:52.488Z,98096.53
2024-03-05T07:01:56.105Z,98094.50
2024-03-05T07:02:58.273Z,98095.75
2024-03-05T07:03:59.722Z,98094.13
2024-03-05T07:05:02.403Z,98096.13
2024-03-05T07:06:08.327Z,98094.13
2024-03-05T07:07:09.865Z,98096.97
2024-03-05T07:08:11.340Z,98100.59
2024-03-05T07:09:12.930Z,98091.31
2024-03-05T07:10:22.640Z,98092.91
2024-03-05T07:11:27.190Z,98094.53
2024-03-05T07:12:31.431Z,98095.16
2024-03-05T07:13:34.156Z,98087.47
2024-03-05T07:14:36.708Z,98096.53
2024-03-05T07:15:38.261Z,98093.53
2024-03-05T07:16:39.709Z,98090.50
2024-03-05T07:17:44.806Z,98087.69
2024-03-05T07:18:48.857Z,98095.38
2024-03-05T07:19:50.540Z,98096.16
2024-03-05T07:20:52.100Z,98086.28
2024-03-05T07:21:53.636Z,98088.88
2024-03-05T07:22:55.748Z,98095.53
2024-03-05T07:23:58.903Z,98097.34
2024-03-05T07:25:00.361Z,98098.78
2024-03-05T07:26:04.940Z,98094.56
2024-03-05T07:27:09.342Z,98098.78
2024-03-05T07:28:13.617Z,98090.50
2024-03-05T07:29:15.159Z,98095.38
2024-03-05T07:30:17.543Z,98095.34
2024-03-05T07:31:20.319Z,98095.56
2024-03-05T07:32:22.072Z,98089.91
2024-03-05T07:33:23.791Z,98084.88
2024-03-05T07:34:25.294Z,98083.66
2024-03-05T07:35:27.012Z,98093.75
2024-03-05T07:36:28.510Z,98085.88
2024-03-05T07:37:29.966Z,98081.44
2024-03-05T07:38:32.110Z,98097.78
2024-03-05T07:39:33.623Z,98091.72
2024-03-05T07:40:35.238Z,98091.72
2024-03-05T07:41:37.368Z,98098.00
2024-03-05T07:42:43.404Z,98090.69
2024-03-05T07:43:45.155Z,98085.47
2024-03-05T07:44:46.700Z,98090.50
2024-03-05T07:45:50.548Z,98089.31
2024-03-05T07:46:52.418Z,98096.56
2024-03-05T07:47:53.987Z,98090.91
2024-03-05T07:48:57.960Z,98090.88
2024-03-05T07:49:59.710Z,98092.09
2024-03-05T07:51:01.277Z,98094.50
2024-03-05T07:52:03.328Z,98099.34
2024-03-05T07:53:04.931Z,98099.75
2024-03-05T07:54:06.393Z,98094.50
2024-03-05T07:55:10.092Z,98092.28
2024-03-05T07:56:11.529Z,98088.00
2024-03-05T07:57:13.909Z,98095.28
2024-03-05T07:58:15.330Z,98092.25
2024-03-05T07:59:16.776Z,98099.91
2024-03-05T08:00:21.839Z,98097.28
2024-03-05T08:01:23.408Z,98093.84
2024-03-05T08:02:26.488Z,98096.06
2024-03-05T08:03:27.931Z,98107.78
2024-03-05T08:04:29.717Z,98111.63
2024-03-05T08:05:31.320Z,98104.34
2024-03-05T08:06:32.913Z,98111.81
2024-03-05T08:07:37.334Z,98102.13
2024-03-05T08:08:38.870Z,98105.16
2024-03-05T08:09:40.323Z,98108.59
2024-03-05T08:10:41.852Z,98107.38
2024-03-05T08:11:43.388Z,98104.53
2024-03-05T08:12:46.402Z,98115.66
2024-03-05T08:13:48.041Z,98115.44
2024-03-05T08:14:49.501Z,98113.84
2024-03-05T08:15:50.959Z,98113.84
2024-03-05T08:16:52.468Z,98110.16
2024-03-05T08:17:54.384Z,98114.00
2024-03-05T08:18:55.868Z,98107.94
2024-03-05T08:19:58.512Z,98108.19
2024-03-05T08:21:02.396Z,98108.97
2024-03-05T08:22:04.316Z,98116.47
2024-03-05T08:23:05.754Z,98116.25
2024-03-05T08:24:07.711Z,98106.56
2024-03-05T08:25:14.001Z,98115.41
2024-03-05T08:26:15.568Z,98114.81
2024-03-05T08:27:17.205Z,98112.22
2024-03-05T08:28:18.676Z,98115.84
2024-03-05T08:29:20.121Z,98111.22
2024-03-05T08:30:24.038Z,98111.00
2024-03-05T08:31:27.037Z,98115.84
2024-03-05T08:32:28.618Z,98117.28
2024-03-05T08:33:30.216Z,98119.50
2024-03-05T08:34:31.824Z,98116.47
2024-03-05T08:35:33.387Z,98120.72
2024-03-05T08:36:38.240Z,98120.88
2024-03-05T08:37:41.862Z,98114.03
2024-03-05T08:38:45.257Z,98118.09
2024-03-05T08:39:46.674Z,98122.72
2024-03-05T08:40:50.346Z,98119.69
2024-03-05T08:41:51.966Z,98124.75
2024-03-05T08:42:56.781Z,98117.88
2024-03-05T08:43:58.339Z,98127.16
2024-03-05T08:44:59.837Z,98126.78
2024-03-05T08:46:02.042Z,98129.00
2024-03-05T08:47:04.115Z,98131.19
2024-03-05T08:48:05.854Z,98124.09
2024-03-05T08:49:07.988Z,98127.56
2024-03-05T08:50:09.628Z,98135.25
2024-03-05T08:51:11.179Z,98133.25
2024-03-05T08:52:13.899Z,98137.72
2024-03-05T08:53:15.379Z,98128.78
2024-03-05T08:54:18.155Z,98127.78
2024-03-05T08:55:19.970Z,98129.63
2024-03-05T08:56:21.560Z,98130.44
2024-03-05T08:57:27.401Z,98126.59
2024-03-05T08:58:29.732Z,98129.03
2024-03-05T08:59:32.929Z,98128.00
2024-03-05T09:00:42.092Z,98126.41
2024-03-05T09:01:45.207Z,98131.84
2024-03-05T09:02:47.265Z,98129.22
2024-03-05T09:03:48.698Z,98125.16
2024-03-05T09:04:52.561Z,98134.25
2024-03-05T09:05:54.087Z,98126.97
2024-03-05T09:06:55.863Z,98137.69
2024-03-05T09:07:57.440Z,98138.47
2024-03-05T09:08:59.297Z,98135.25
2024-03-05T09:10:00.775Z,98136.25
2024-03-05T09:11:02.266Z,98128.38
2024-03-05T09:12:03.892Z,98131.63
2024-03-05T09:13:05.791Z,98131.63
2024-03-05T09:14:07.365Z,98133.47
2024-03-05T09:15:10.063Z,98132.03
2024-03-05T09:16:13.739Z,98136.09
2024-03-05T09:17:15.228Z,98133.47
2024-03-05T09:18:18.062Z,98132.47
2024-03-05T09:19:21.325Z,98136.91
2024-03-05T09:20:22.809Z,98132.84
2024-03-05T09:21:24.520Z,98134.88
2024-03-05T09:22:26.066Z,98138.91
2024-03-05T09:23:27.509Z,98136.66
2024-03-05T09:24:29.026Z,98131.63
2024-03-05T09:25:31.478Z,98133.63
2024-03-05T09:26:34.510Z,98137.47
2024-03-05T09:27:38.868Z,98138.91
2024-03-05T09:28:40.336Z,98141.31
2024-03-05T09:29:43.183Z,98138.47
2024-03-05T09:30:45.198Z,98133.44
2024-03-05T09:31:47.908Z,98136.03
2024-03-05T09:32:49.414Z,98138.06
2024-03-05T09:33:50.989Z,98145.28
2024-03-05T09:34:52.502Z,98143.69
2024-03-05T09:35:54.023Z,98149.75
2024-03-05T09:36:57.279Z,98142.09
2024-03-05T09:37:58.993Z,98145.94
2024-03-05T09:39:00.880Z,98146.09
2024-03-05T09:40:02.691Z,98147.50
2024-03-05T09:41:08.650Z,98143.25
2024-03-05T09:42:11.137Z,98140.81
2024-03-05T09:43:14.022Z,98143.22
2024-03-05T09:44:16.135Z,98144.03
2024-03-05T09:45:18.849Z,98139.19
2024-03-05T09:46:21.612Z,98146.06
2024-03-05T09:47:23.740Z,98148.28
2024-03-05T09:48:25.232Z,98149.50
2024-03-05T09:49:29.019Z,98146.06
2024-03-05T09:50:35.203Z,98147.69
2024-03-05T09:51:38.154Z,98147.31
2024-03-05T09:52:39.835Z,98140.47
2024-03-05T09:53:41.483Z,98146.53
2024-03-05T09:54:44.794Z,98144.09
2024-03-05T09:55:48.787Z,98148.94
2024-03-05T09:56:53.760Z,98145.09
2024-03-05T09:57:55.954Z,98150.53
2024-03-05T09:58:59.346Z,98144.88
2024-03-05T10:00:00.822Z,98149.75
2024-03-05T10:01:03.387Z,98143.47
2024-03-05T10:02:05.954Z,98145.09
2024-03-05T10:03:09.758Z,98153.38
2024-03-05T10:04:13.266Z,98146.91
2024-03-05T10:05:17.287Z,98148.53
2024-03-05T10:06:19.410Z,98152.94
2024-03-05T10:07:27.450Z,98149.69
2024-03-05T10:08:28.997Z,98155.97
2024-03-05T10:09:31.597Z,98148.31
2024-03-05T10:10:36.213Z,98148.53
2024-03-05T10:11:38.634Z,98149.34
2024-03-05T10:12:40.937Z,98150.91
2024-03-05T10:13:42.545Z,98150.91
2024-03-05T10:14:44.064Z,98149.69
2024-03-05T10:15:45.537Z,98147.06
2024-03-05T10:16:47.126Z,98146.47
2024-03-05T10:17:54.147Z,98145.84
2024-03-05T10:18:56.112Z,98145.25
2024-03-05T10:19:57.695Z,98147.06
2024-03-05T10:21:14.302Z,98150.31
2024-03-05T10:22:15.750Z,98148.69
2024-03-05T10:23:17.225Z,98147.69
2024-03-05T10:24:28.426Z,98141.25
2024-03-05T10:25:30.493Z,98150.72
2024-03-05T10:26:33.180Z,98145.66
2024-03-05T10:27:34.643Z,98154.16
2024-03-05T10:28:36.329Z,98153.94
2024-03-05T10:29:42.200Z,98144.03
2024-03-05T10:30:47.307Z,98154.16
2024-03-05T10:31:51.397Z,98149.69
2024-03-05T10:32:53.757Z,98150.31
2024-03-05T10:33:57.494Z,98142.63
2024-03-05T10:35:00.812Z,98153.94
2024-03-05T10:36:02.464Z,98155.75
2024-03-05T10:37:05.415Z,98148.03
2024-03-05T10:38:09.977Z,98154.75
2024-03-05T10:39:13.884Z,98146.88
2024-03-05T10:40:16.248Z,98146.41
2024-03-05T10:41:22.810Z,98150.25
2024-03-05T10:42:26.907Z,98149.03
2024-03-05T10:43:34.292Z,98141.16
2024-03-05T10:44:36.556Z,98141.09
2024-03-05T10:45:39.497Z,98138.28
2024-03-05T10:46:44.839Z,98141.50
2024-03-05T10:47:47.412Z,98132.22
2024-03-05T10:48:50.500Z,98140.28
2024-03-05T10:49:51.990Z,98141.91
2024-03-05T10:50:57.186Z,98138.66
2024-03-05T10:51:59.487Z,98138.25
2024-03-05T10:53:02.755Z,98141.09
2024-03-05T10:54:05.959Z,98145.34
2024-03-05T10:55:12.311Z,98143.91
2024-03-05T10:56:14.549Z,98140.63
2024-03-05T10:57:16.077Z,98144.66
2024-03-05T10:58:17.490Z,98139.25
2024-03-05T10:59:18.936Z,98141.47
2024-03-05T11:00:25.160Z,98141.88
2024-03-05T11:01:31.223Z,98141.00
2024-03-05T11:02:34.076Z,98139.59
2024-03-05T11:03:41.713Z,98144.44
2024-03-05T11:04:46.125Z,98140.56
2024-03-05T11:05:51.516Z,98139.09
2024-03-05T11:06:56.704Z,98143.97
2024-03-05T11:07:58.940Z,98139.09
2024-03-05T11:09:00.858Z,98137.50
2024-03-05T11:10:03.059Z,98147.66
2024-03-05T11:11:09.919Z,98145.59
2024-03-05T11:12:13.797Z,98141.75
2024-03-05T11:13:15.775Z,98141.31
2024-03-05T11:14:18.843Z,98141.72
2024-03-05T11:15:22.528Z,98139.09
2024-03-05T11:16:24.057Z,98139.69
2024-03-05T11:17:26.396Z,98139.09
2024-03-05T11:18:35.149Z,98139.72
2024-03-05T11:19:42.774Z,98137.09
2024-03-05T11:20:48.402Z,98133.66
2024-03-05T11:21:49.912Z,98138.91
2024-03-05T11:22:52.434Z,98135.25
2024-03-05T11:23:53.950Z,98132.03
2024-03-05T11:25:01.593Z,98132.69
2024-03-05T11:26:04.964Z,98136.13
2024-03-05T11:27:13.188Z,98129.25
2024-03-05T11:28:17.842Z,98136.47
2024-03-05T11:29:21.475Z,98128.56
2024-03-05T11:30:23.685Z,98127.34
2024-03-05T11:31:27.842Z,98131.56
2024-03-05T11:32:29.969Z,98129.16
2024-03-05T11:33:32.059Z,98129.16
2024-03-05T11:34:36.657Z,98128.16
2024-03-05T11:35:39.162Z,98126.94
2024-03-05T11:36:41.116Z,98130.59
2024-03-05T11:37:48.404Z,98134.41
2024-03-05T11:39:08.661Z,98133.44
2024-03-05T11:40:13.091Z,98130.97
2024-03-05T11:41:23.707Z,98138.22
2024-03-05T11:42:27.208Z,98137.63
2024-03-05T11:43:38.038Z,98129.16
2024-03-05T11:44:42.846Z,98127.56
2024-03-05T11:45:47.665Z,98127.75
2024-03-05T11:46:51.902Z,98124.69
2024-03-05T11:47:57.034Z,98127.09
2024-03-05T11:49:02.544Z,98127.50
2024-03-05T11:50:04.726Z,98121.59
2024-03-05T11:51:06.227Z,98128.47
2024-03-05T11:52:07.656Z,98121.31
2024-03-05T11:53:10.408Z,98126.56
2024-03-05T11:54:15.903Z,98129.13
2024-03-05T11:55:25.832Z,98123.63
2024-03-05T11:56:27.306Z,98127.50
2024-03-05T11:57:28.949Z,98116.97
2024-03-05T11:58:30.511Z,98120.28
2024-03-05T11:59:35.821Z,98129.13
2024-03-05T12:00:37.848Z,98124.63
2024-03-05T12:01:43.059Z,98121.91
2024-03-05T12:02:44.851Z,98126.09
2024-03-05T12:03:46.315Z,98124.81
2024-03-05T12:04:50.443Z,98126.78
2024-03-05T12:05:52.142Z,98121.91
2024-03-05T12:07:07.793Z,98128.34
2024-03-05T12:08:09.364Z,98126.88
2024-03-05T12:09:19.377Z,98127.53
2024-03-05T12:10:21.245Z,98124.81
2024-03-05T12:11:22.852Z,98133.88
2024-03-05T12:12:25.203Z,98127.00
2024-03-05T12:13:28.479Z,98135.50
2024-03-05T12:14:31.665Z,98127.59
2024-03-05T12:15:34.310Z,98127.06
2024-03-05T12:16:36.737Z,98125.41
2024-03-05T12:17:38.268Z,98129.81
2024-03-05T12:18:39.826Z,98128.94
2024-03-05T12:19:41.800Z,98126.06